Time;durP1;ratioP1;P1;durP2;ratioP2;P2;SDS_P1;SDS_P2;PMS_P1;PMS_P2;Temp;Humidity;BMP_temperature;BMP_pressure;BME280_temperature;BME280_humidity;BME280_pressure;Samples;Min_cycle;Max_cycle;Signal;HPM_P1;HPM_P2
2021/05/04 00:02:11;;;;;;;4.45;3.10;;;10.40;67.50;;;;;;6131631;23;20215;-92
2021/05/04 00:04:36;;;;;;;4.07;2.80;;;10.40;67.50;;;;;;6131375;23;20025;-93
2021/05/04 00:07:02;;;;;;;3.63;3.00;;;10.30;66.80;;;;;;6106925;23;20006;-94
2021/05/04 00:09:28;;;;;;;5.00;2.80;;;10.30;67.30;;;;;;6131990;23;20478;-93
2021/05/04 00:11:56;;;;;;;5.65;3.10;;;10.30;67.60;;;;;;6131852;23;20010;-92
2021/05/04 00:14:22;;;;;;;4.30;3.20;;;10.30;67.40;;;;;;6131389;23;20077;-93
2021/05/04 00:16:48;;;;;;;5.28;3.22;;;10.30;67.60;;;;;;6131790;23;20037;-93
2021/05/04 00:19:14;;;;;;;6.03;3.10;;;10.20;67.80;;;;;;6131865;23;20016;-93
2021/05/04 00:21:39;;;;;;;5.50;3.85;;;10.20;67.70;;;;;;6131450;23;20100;-92
2021/05/04 00:24:06;;;;;;;4.00;3.05;;;10.20;67.80;;;;;;6106946;23;20393;-92
2021/05/04 00:26:32;;;;;;;4.07;3.67;;;10.10;68.20;;;;;;6131584;23;20330;-93
2021/05/04 00:28:58;;;;;;;5.60;2.75;;;10.10;68.40;;;;;;6131475;23;20349;-93
2021/05/04 00:31:24;;;;;;;4.05;3.17;;;10.10;68.60;;;;;;6131537;23;19998;-93
2021/05/04 00:33:49;;;;;;;3.58;2.80;;;10.10;68.40;;;;;;6132019;23;19998;-93
2021/05/04 00:36:15;;;;;;;4.55;2.97;;;10.00;68.40;;;;;;6131578;23;20006;-93
2021/05/04 00:38:40;;;;;;;5.90;3.38;;;10.00;68.90;;;;;;6131628;23;20014;-92
2021/05/04 00:41:06;;;;;;;5.70;3.08;;;10.00;69.40;;;;;;6130905;23;20029;-94
2021/05/04 00:43:33;;;;;;;10.55;3.50;;;9.90;69.10;;;;;;6131538;23;20185;-93
2021/05/04 00:45:59;;;;;;;4.60;3.17;;;9.90;69.00;;;;;;6131990;23;20282;-94
2021/05/04 00:48:26;;;;;;;4.00;3.60;;;9.80;69.00;;;;;;6132858;23;20136;-94
2021/05/04 00:50:52;;;;;;;4.82;3.50;;;9.80;69.60;;;;;;6140193;23;20091;-92
2021/05/04 00:53:18;;;;;;;3.15;2.85;;;9.80;69.70;;;;;;6133922;23;20002;-92
2021/05/04 00:55:44;;;;;;;6.38;3.72;;;9.80;70.20;;;;;;6133298;23;20013;-92
2021/05/04 00:58:12;;;;;;;5.78;3.20;;;9.80;69.60;;;;;;6133670;23;20018;-93
2021/05/04 01:00:38;;;;;;;5.10;3.15;;;9.80;70.20;;;;;;6133420;23;20002;-92
2021/05/04 01:03:05;;;;;;;3.88;3.38;;;9.70;70.90;;;;;;6133549;23;20064;-93
2021/05/04 01:05:31;;;;;;;5.13;3.20;;;9.70;70.10;;;;;;6133328;23;20064;-93
2021/05/04 01:07:56;;;;;;;4.35;3.42;;;9.70;70.00;;;;;;6132973;23;20014;-93
2021/05/04 01:10:22;;;;;;;5.93;3.30;;;9.70;71.40;;;;;;6133468;23;20002;-93
2021/05/04 01:12:48;;;;;;;4.57;3.72;;;9.70;70.20;;;;;;6133752;23;20002;-93
2021/05/04 01:15:25;;;;;;;8.85;3.20;;;9.70;70.30;;;;;;6109195;23;20404;-93
2021/05/04 01:17:51;;;;;;;4.10;3.10;;;9.70;70.30;;;;;;6133880;23;20373;-93
2021/05/04 01:20:16;;;;;;;5.28;3.20;;;9.60;70.80;;;;;;6133492;23;20342;-94
2021/05/04 01:22:42;;;;;;;4.38;3.20;;;9.60;70.30;;;;;;6133160;23;20006;-93
2021/05/04 01:25:19;;;;;;;7.60;2.92;;;9.60;70.50;;;;;;6133008;23;20010;-93
2021/05/04 01:27:44;;;;;;;3.97;3.05;;;9.60;70.80;;;;;;6132763;23;20005;-93
2021/05/04 01:30:13;;;;;;;6.90;2.92;;;9.60;70.50;;;;;;6133376;23;20017;-92
2021/05/04 01:32:38;;;;;;;3.90;3.05;;;9.50;70.70;;;;;;6133251;23;20495;-94
2021/05/04 01:35:11;;;;;;;5.05;3.38;;;9.50;70.40;;;;;;6133168;23;19998;-93
2021/05/04 01:37:47;;;;;;;3.70;3.08;;;9.60;70.40;;;;;;6133086;23;20009;-93
2021/05/04 01:40:16;;;;;;;4.55;3.45;;;9.60;71.80;;;;;;6133294;23;20076;-95
2021/05/04 01:42:48;;;;;;;3.97;2.72;;;9.60;70.80;;;;;;6132952;23;20334;-94
2021/05/04 01:45:16;;;;;;;3.58;3.03;;;9.50;70.20;;;;;;6132134;23;20342;-93
2021/05/04 01:47:49;;;;;;;5.20;3.40;;;9.50;70.30;;;;;;6132888;23;20016;-93
2021/05/04 01:50:15;;;;;;;4.22;3.17;;;9.50;70.40;;;;;;6133342;23;20002;-93
2021/05/04 01:52:40;;;;;;;4.13;3.10;;;9.50;70.10;;;;;;6132345;23;20016;-94
2021/05/04 01:55:07;;;;;;;5.88;3.97;;;9.60;69.50;;;;;;6133200;23;20085;-93
2021/05/04 01:57:42;;;;;;;4.28;3.13;;;9.60;70.00;;;;;;6132773;23;20232;-94
2021/05/04 02:00:11;;;;;;;5.55;3.22;;;9.60;69.70;;;;;;6133189;23;20006;-93
2021/05/04 02:02:37;;;;;;;3.97;2.90;;;9.70;69.60;;;;;;6132698;23;20010;-93
2021/05/04 02:05:05;;;;;;;7.13;3.10;;;9.70;69.60;;;;;;6133719;23;20006;-94
2021/05/04 02:07:31;;;;;;;7.50;2.95;;;9.70;69.30;;;;;;6132839;23;20235;-94
2021/05/04 02:09:57;;;;;;;4.43;3.13;;;9.80;70.00;;;;;;6132053;23;20346;-94
2021/05/04 02:12:35;;;;;;;4.47;2.90;;;9.80;69.40;;;;;;6132107;23;20006;-92
2021/05/04 02:15:05;;;;;;;4.47;3.35;;;9.90;70.20;;;;;;6108617;23;20331;-93
2021/05/04 02:17:36;;;;;;;3.83;2.97;;;9.80;69.30;;;;;;6130857;23;20040;-93
2021/05/04 02:20:07;;;;;;;4.07;3.00;;;9.80;68.90;;;;;;6132698;23;20013;-92
2021/05/04 02:22:39;;;;;;;8.07;3.85;;;9.90;69.10;;;;;;6132952;23;20093;-93
2021/05/04 02:25:12;;;;;;;4.97;2.83;;;9.90;70.10;;;;;;6132558;23;20014;-94
2021/05/04 02:27:59;;;;;;;5.10;3.30;;;9.90;69.70;;;;;;6132778;23;20010;-94
2021/05/04 02:33:47;;;;;;;4.40;2.30;;;9.90;69.40;;;;;;6122482;23;20012;-94
2021/05/04 02:36:22;;;;;;;7.93;3.28;;;9.90;68.90;;;;;;6132115;23;20005;-94
2021/05/04 02:38:50;;;;;;;5.07;3.10;;;9.90;68.90;;;;;;6132549;23;20010;-92
2021/05/04 02:41:26;;;;;;;4.07;2.75;;;9.90;68.50;;;;;;6132457;23;20140;-94
2021/05/04 02:43:51;;;;;;;5.75;2.85;;;10.00;68.20;;;;;;6128465;23;20087;-93
2021/05/04 02:46:17;;;;;;;4.85;2.88;;;10.00;67.50;;;;;;6132758;23;20016;-94
2021/05/04 02:48:43;;;;;;;2.65;2.30;;;10.00;68.20;;;;;;6132387;23;20010;-93
2021/05/04 02:51:16;;;;;;;4.97;2.63;;;10.00;67.60;;;;;;6116103;23;20006;-91
2021/05/04 02:53:52;;;;;;;2.88;2.30;;;10.10;67.40;;;;;;6140687;23;20013;-94
2021/05/04 02:56:33;;;;;;;;;;;;;;;;;;;;;
2021/05/04 02:59:08;;;;;;;4.05;2.83;;;10.00;68.10;;;;;;6133222;23;20046;-94
2021/05/04 03:01:33;;;;;;;3.13;2.30;;;10.00;67.90;;;;;;6132325;23;20006;-93
2021/05/04 03:03:59;;;;;;;4.32;2.88;;;10.00;67.70;;;;;;6132333;23;20282;-93
2021/05/04 03:06:24;;;;;;;3.42;2.53;;;9.90;68.00;;;;;;6132068;23;20013;-93
2021/05/04 03:08:50;;;;;;;3.47;2.40;;;9.90;68.10;;;;;;6132725;23;20006;-92
2021/05/04 03:11:16;;;;;;;3.38;2.97;;;9.90;67.30;;;;;;6132353;23;20321;-93
2021/05/04 03:13:41;;;;;;;4.72;3.13;;;10.00;67.70;;;;;;6132732;23;20002;-91
2021/05/04 03:16:09;;;;;;;3.33;2.95;;;10.00;68.20;;;;;;6132337;23;20006;-94
2021/05/04 03:18:34;;;;;;;5.38;3.08;;;9.90;67.50;;;;;;6132237;23;20002;-94
2021/05/04 03:21:00;;;;;;;7.97;3.03;;;9.90;67.90;;;;;;6132397;23;20220;-93
2021/05/04 03:23:26;;;;;;;5.80;2.88;;;9.90;67.70;;;;;;6132112;23;20699;-92
2021/05/04 03:25:51;;;;;;;4.25;2.90;;;9.80;68.10;;;;;;6131738;23;20097;-92
2021/05/04 03:28:18;;;;;;;5.40;2.90;;;9.80;68.10;;;;;;6132271;23;20010;-93
2021/05/04 03:30:44;;;;;;;3.85;3.20;;;9.70;68.20;;;;;;6132306;23;20002;-94
2021/05/04 03:33:10;;;;;;;3.45;2.95;;;9.80;68.70;;;;;;6132470;23;20049;-93
2021/05/04 03:35:35;;;;;;;4.68;3.47;;;9.70;69.00;;;;;;6131904;23;20530;-92
2021/05/04 03:38:02;;;;;;;5.28;3.30;;;9.70;69.20;;;;;;6131996;23;20093;-93
2021/05/04 03:40:28;;;;;;;4.70;3.05;;;9.70;69.10;;;;;;6132258;23;20006;-93
2021/05/04 03:42:54;;;;;;;4.88;3.00;;;9.60;69.50;;;;;;6131506;23;20089;-92
2021/05/04 03:45:19;;;;;;;4.43;3.25;;;9.60;69.60;;;;;;6131891;23;20326;-92
2021/05/04 03:47:46;;;;;;;5.43;3.05;;;9.50;69.60;;;;;;6131830;23;20006;-93
2021/05/04 03:50:17;;;;;;;4.50;3.22;;;9.50;69.70;;;;;;6131880;23;20093;-93
2021/05/04 03:52:43;;;;;;;4.55;3.28;;;9.60;69.90;;;;;;6131884;23;20006;-92
2021/05/04 03:55:10;;;;;;;7.97;3.55;;;9.50;69.90;;;;;;6131688;23;20036;-93
2021/05/04 03:57:37;;;;;;;5.50;3.72;;;9.60;69.80;;;;;;6132069;23;20013;-92
2021/05/04 04:00:05;;;;;;;5.75;3.45;;;9.60;70.10;;;;;;6132070;23;20006;-93
2021/05/04 04:02:30;;;;;;;5.90;4.28;;;9.60;70.80;;;;;;6131742;23;20010;-92
2021/05/04 04:04:56;;;;;;;6.07;4.57;;;9.60;70.50;;;;;;6132315;23;20013;-93
2021/05/04 04:07:21;;;;;;;7.18;5.80;;;9.60;70.40;;;;;;6131320;23;20006;-93
2021/05/04 04:09:47;;;;;;;8.20;4.78;;;9.60;70.80;;;;;;6131538;23;20389;-93
2021/05/04 04:12:13;;;;;;;9.00;4.47;;;9.60;70.80;;;;;;6131845;23;20076;-93
2021/05/04 04:14:39;;;;;;;7.35;4.65;;;9.60;70.20;;;;;;6132033;23;20012;-94
2021/05/04 04:17:04;;;;;;;9.38;4.35;;;9.60;70.60;;;;;;6131640;23;20223;-93
2021/05/04 04:19:32;;;;;;;6.40;4.32;;;9.60;70.80;;;;;;6107070;23;20085;-92
2021/05/04 04:22:01;;;;;;;4.60;3.50;;;9.70;71.10;;;;;;6131762;23;20044;-93
2021/05/04 04:24:26;;;;;;;5.70;3.50;;;9.70;70.70;;;;;;6131084;23;20422;-93
2021/05/04 04:26:54;;;;;;;7.25;4.05;;;9.70;71.50;;;;;;6131310;23;20006;-93
2021/05/04 04:29:20;;;;;;;4.80;3.05;;;9.70;71.10;;;;;;6131603;23;20002;-93
2021/05/04 04:31:45;;;;;;;8.23;3.28;;;9.70;71.10;;;;;;6130786;23;20097;-92
2021/05/04 04:34:16;;;;;;;4.10;3.13;;;9.80;71.00;;;;;;6130108;23;20016;-94
2021/05/04 04:36:41;;;;;;;4.72;3.42;;;9.80;71.30;;;;;;6130958;23;20338;-93
2021/05/04 04:39:07;;;;;;;4.82;3.70;;;9.80;71.00;;;;;;6131251;23;20086;-93
2021/05/04 04:41:48;;;;;;;5.07;3.55;;;9.90;71.70;;;;;;6131322;23;20123;-94
2021/05/04 04:44:16;;;;;;;5.78;4.15;;;10.00;71.30;;;;;;6129624;23;20017;-93
2021/05/04 04:46:50;;;;;;;6.13;3.92;;;10.00;70.70;;;;;;6131225;23;20017;-94
2021/05/04 04:49:26;;;;;;;4.85;3.63;;;10.20;71.70;;;;;;6131247;23;19998;-93
2021/05/04 04:51:52;;;;;;;4.70;3.25;;;10.10;71.20;;;;;;6131439;23;20030;-94
2021/05/04 04:54:18;;;;;;;4.70;3.38;;;10.30;71.10;;;;;;6133265;23;20028;-93
2021/05/04 04:56:43;;;;;;;4.90;3.50;;;10.30;70.80;;;;;;6136515;23;20417;-93
2021/05/04 04:59:40;;;;;;;6.32;3.58;;;10.30;71.60;;;;;;6133769;23;20013;-94
2021/05/04 05:02:05;;;;;;;;;;;10.30;71.20;;;;;;6130024;23;20255;-93
2021/05/04 05:04:36;;;;;;;5.13;3.47;;;10.40;70.10;;;;;;6130844;23;20280;-93
2021/05/04 05:07:23;;;;;;;8.00;3.80;;;10.40;70.90;;;;;;6130478;23;20010;-94
2021/05/04 05:09:52;;;;;;;5.78;3.95;;;10.40;70.70;;;;;;6131235;23;19998;-93
2021/05/04 05:12:30;;;;;;;5.05;3.78;;;10.40;70.40;;;;;;6131015;23;20009;-93
2021/05/04 05:15:05;;;;;;;4.03;3.40;;;10.40;69.60;;;;;;6130406;23;20014;-94
2021/05/04 05:17:34;;;;;;;6.40;3.67;;;10.50;69.80;;;;;;6130566;23;20010;-92
2021/05/04 05:20:15;;;;;;;5.88;3.50;;;10.60;70.70;;;;;;6130934;23;20009;-93
2021/05/04 05:22:56;;;;;;;5.95;3.72;;;10.70;69.60;;;;;;6129366;23;20010;-91
2021/05/04 05:25:53;;;;;;;3.55;3.10;;;10.80;69.50;;;;;;6130052;23;20009;-93
2021/05/04 05:28:22;;;;;;;4.50;2.90;;;10.90;68.90;;;;;;6131626;23;20006;-93
2021/05/04 05:30:52;;;;;;;6.35;3.17;;;11.00;68.60;;;;;;6131023;23;20010;-94
2021/05/04 05:33:24;;;;;;;13.85;3.17;;;11.00;68.20;;;;;;6128827;23;20010;-92
2021/05/04 05:35:57;;;;;;;5.50;3.45;;;11.10;69.30;;;;;;6131347;23;20006;-93
2021/05/04 05:38:22;;;;;;;4.53;3.10;;;11.10;68.40;;;;;;6132349;23;20017;-93
2021/05/04 05:41:07;;;;;;;4.45;3.30;;;11.20;68.20;;;;;;6129361;23;20014;-93
2021/05/04 05:43:49;;;;;;;8.38;3.30;;;11.20;68.40;;;;;;6131984;23;20065;-94
2021/05/04 05:46:15;;;;;;;3.70;3.10;;;11.30;67.70;;;;;;6133049;23;20040;-93
2021/05/04 05:48:44;;;;;;;4.05;2.97;;;11.40;67.10;;;;;;6132853;23;20005;-94
2021/05/04 05:51:20;;;;;;;4.22;2.72;;;11.50;66.40;;;;;;6132936;23;20012;-93
2021/05/04 05:53:45;;;;;;;5.07;3.00;;;11.50;66.30;;;;;;6132488;23;20326;-92
2021/05/04 05:56:13;;;;;;;3.83;2.65;;;11.70;66.30;;;;;;6132715;23;20017;-93
2021/05/04 05:58:40;;;;;;;3.65;2.88;;;11.70;65.60;;;;;;6132660;23;20073;-94
2021/05/04 06:01:07;;;;;;;5.80;2.53;;;11.70;66.40;;;;;;6131979;23;20020;-93
2021/05/04 06:03:33;;;;;;;5.15;2.92;;;11.70;66.30;;;;;;6132488;23;20009;-93
2021/05/04 06:06:02;;;;;;;4.50;2.80;;;11.80;66.20;;;;;;6132343;23;20500;-94
2021/05/04 06:08:42;;;;;;;5.85;3.13;;;11.80;66.00;;;;;;6132426;23;20030;-94
2021/05/04 06:11:07;;;;;;;5.25;2.47;;;11.90;65.50;;;;;;6132664;23;20315;-94
2021/05/04 06:13:33;;;;;;;6.20;2.83;;;11.90;66.30;;;;;;6131962;23;20013;-94
2021/05/04 06:15:58;;;;;;;5.60;3.10;;;11.90;66.60;;;;;;6132419;23;20382;-94
2021/05/04 06:18:45;;;;;;;4.05;2.85;;;12.00;66.00;;;;;;6132403;23;20319;-93
2021/05/04 06:21:11;;;;;;;6.45;3.00;;;12.00;66.50;;;;;;6132481;23;20061;-93
2021/05/04 06:23:36;;;;;;;3.45;2.60;;;12.10;65.50;;;;;;6131683;23;20080;-94
2021/05/04 06:26:18;;;;;;;4.80;3.17;;;12.10;65.00;;;;;;6132569;23;20005;-93
2021/05/04 06:28:49;;;;;;;4.50;3.15;;;12.20;64.70;;;;;;6131968;23;20015;-95
2021/05/04 06:31:32;;;;;;;4.15;2.42;;;12.20;65.60;;;;;;6132163;23;20037;-94
2021/05/04 06:34:06;;;;;;;7.88;3.08;;;12.30;66.20;;;;;;6132099;23;20093;-92
2021/05/04 06:36:32;;;;;;;3.78;2.47;;;12.30;65.60;;;;;;6132168;23;20398;-93
2021/05/04 06:38:57;;;;;;;3.78;2.60;;;12.40;64.30;;;;;;6132830;23;20017;-93
2021/05/04 06:41:28;;;;;;;4.25;2.80;;;12.50;64.50;;;;;;6134519;23;20002;-90
2021/05/04 06:43:53;;;;;;;3.65;2.80;;;12.50;63.80;;;;;;6131981;23;20326;-93
2021/05/04 06:46:19;;;;;;;3.45;2.38;;;12.60;65.00;;;;;;6131504;23;20001;-92
2021/05/04 06:48:54;;;;;;;4.63;2.90;;;12.60;64.10;;;;;;6132444;23;20250;-91
2021/05/04 06:51:36;;;;;;;3.47;2.90;;;12.70;64.50;;;;;;6132396;23;20002;-94
2021/05/04 06:54:07;;;;;;;6.68;2.70;;;12.80;64.00;;;;;;6107663;23;20077;-92
2021/05/04 06:56:36;;;;;;;5.03;2.53;;;12.80;63.80;;;;;;6112660;23;19990;-92
2021/05/04 06:59:01;;;;;;;4.22;2.33;;;12.90;64.90;;;;;;6135370;23;20237;-92
2021/05/04 07:01:33;;;;;;;3.78;2.70;;;13.00;63.70;;;;;;6131826;23;20002;-92
2021/05/04 07:04:46;;;;;;;3.27;2.43;;;13.00;62.60;;;;;;6131494;23;20013;-93
2021/05/04 07:07:12;;;;;;;11.65;3.45;;;13.00;63.50;;;;;;6107407;23;20281;-91
2021/05/04 07:09:38;;;;;;;3.05;2.40;;;13.00;64.90;;;;;;6131273;23;20042;-94
2021/05/04 07:12:09;;;;;;;6.40;3.00;;;13.00;63.50;;;;;;6131771;23;20033;-94
2021/05/04 07:14:45;;;;;;;4.10;2.55;;;13.00;64.40;;;;;;6131716;23;20010;-93
2021/05/04 07:17:13;;;;;;;6.60;2.95;;;13.00;63.10;;;;;;6131380;23;20034;-92
2021/05/04 07:20:03;;;;;;;3.60;2.60;;;13.00;64.90;;;;;;6131336;23;20393;-93
2021/05/04 07:22:34;;;;;;;5.22;2.80;;;13.00;65.30;;;;;;6131226;23;20017;-93
2021/05/04 07:25:14;;;;;;;4.97;2.72;;;13.10;65.20;;;;;;6129938;23;20013;-94
2021/05/04 07:27:47;;;;;;;4.47;2.67;;;13.00;65.00;;;;;;6130218;23;20010;-93
2021/05/04 07:30:33;;;;;;;2.83;2.15;;;13.10;65.80;;;;;;6131614;23;20009;-93
2021/05/04 07:33:17;;;;;;;3.50;2.53;;;13.00;66.20;;;;;;6130758;23;20065;-94
2021/05/04 07:35:59;;;;;;;4.22;2.58;;;13.00;64.80;;;;;;6130506;23;20761;-94
2021/05/04 07:42:26;;;;;;;5.10;3.33;;;12.90;67.80;;;;;;6130519;23;20306;-95
2021/05/04 08:24:21;;;;;;;2.53;1.63;;;13.50;65.60;;;;;;6025181;23;20031;-94
2021/05/04 08:27:28;;;;;;;5.18;2.33;;;13.60;65.10;;;;;;5965009;24;20012;-95
2021/05/04 08:30:22;;;;;;;3.20;2.35;;;13.70;63.50;;;;;;5958443;24;20012;-95
2021/05/04 08:46:50;;;;;;;8.93;1.85;;;13.80;62.70;;;;;;5902811;24;20033;-93
2021/05/04 08:49:20;;;;;;;2.40;1.67;;;13.90;61.30;;;;;;5921159;23;20011;-95
2021/05/04 08:51:51;;;;;;;3.38;1.55;;;13.90;61.70;;;;;;6047205;23;20009;-94
2021/05/04 08:54:23;;;;;;;2.28;1.33;;;13.90;61.30;;;;;;6046449;23;20353;-96
2021/05/04 08:57:01;;;;;;;;;;;;;;;;;;;;;
2021/05/04 09:24:43;;;;;;;;;;;;;;;;;;;;;
2021/05/04 09:31:01;;;;;;;2.53;1.10;;;13.70;64.00;;;;;;5959864;24;20007;-95
2021/05/04 09:47:43;;;;;;;1.70;1.25;;;14.00;64.10;;;;;;5932338;24;20008;-94
2021/05/04 10:34:41;;;;;;;1.10;0.80;;;16.60;56.70;;;;;;5937694;24;20054;-93
2021/05/04 10:37:54;;;;;;;1.83;1.00;;;16.40;56.70;;;;;;6108805;23;20365;-93
2021/05/04 10:43:44;;;;;;;1.33;1.13;;;16.30;56.50;;;;;;6127713;23;20029;-92
2021/05/04 10:46:41;;;;;;;1.13;0.80;;;16.20;57.40;;;;;;6131141;23;20010;-90
2021/05/04 10:49:09;;;;;;;5.90;1.10;;;16.10;56.70;;;;;;6153105;23;20021;-92
2021/05/04 10:51:52;;;;;;;1.75;1.00;;;16.10;58.50;;;;;;6131269;23;20002;-94
2021/05/04 10:54:59;;;;;;;;;;;16.00;56.70;;;;;;6131216;23;20016;-93
2021/05/04 11:01:32;;;;;;;3.90;0.85;;;15.80;57.70;;;;;;6024734;23;20040;-94
2021/05/04 11:04:11;;;;;;;2.85;0.95;;;15.60;59.30;;;;;;6038236;23;20051;-93
2021/05/04 11:07:29;;;;;;;;;;;;;;;;;;;;;
2021/05/04 11:13:50;;;;;;;1.58;0.70;;;15.90;58.60;;;;;;6020223;23;20016;-94
2021/05/04 11:16:36;;;;;;;5.07;0.60;;;16.00;58.30;;;;;;5991924;23;20020;-92
2021/05/04 11:19:54;;;;;;;5.15;1.45;;;16.10;58.30;;;;;;5991850;23;20004;-94
2021/05/04 11:22:24;;;;;;;4.32;0.85;;;16.20;58.00;;;;;;5952223;23;20010;-94
2021/05/04 11:25:13;;;;;;;1.60;0.88;;;16.10;58.50;;;;;;6058047;23;20021;-94
2021/05/04 11:27:55;;;;;;;1.77;0.95;;;16.00;58.70;;;;;;6123386;23;20018;-94
2021/05/04 11:30:42;;;;;;;3.00;0.70;;;15.90;59.00;;;;;;6131687;23;20013;-92
2021/05/04 11:33:44;;;;;;;0.90;0.50;;;15.80;58.90;;;;;;6130596;23;20249;-93
2021/05/04 11:36:10;;;;;;;7.10;1.00;;;15.70;59.80;;;;;;6131002;23;20346;-94
2021/05/04 11:39:03;;;;;;;2.90;0.50;;;15.60;58.20;;;;;;6130730;23;20230;-93
2021/05/04 11:41:29;;;;;;;;;;;15.50;60.40;;;;;;6131365;23;20339;-92
2021/05/04 11:44:01;;;;;;;0.90;0.73;;;15.50;60.40;;;;;;6131747;23;19905;-93
2021/05/04 11:46:35;;;;;;;1.33;0.50;;;15.40;59.00;;;;;;6130815;23;20064;-94
2021/05/04 11:52:06;;;;;;;2.08;0.73;;;15.40;59.50;;;;;;6123872;23;20017;-91
2021/05/04 11:54:37;;;;;;;1.75;0.73;;;15.40;60.10;;;;;;6131367;23;20009;-94
2021/05/04 11:57:35;;;;;;;1.73;0.63;;;15.40;60.10;;;;;;6131136;23;20010;-94
2021/05/04 12:00:09;;;;;;;2.25;0.70;;;15.40;60.30;;;;;;6131201;23;20242;-93
2021/05/04 12:02:58;;;;;;;0.98;0.63;;;15.50;60.80;;;;;;6131186;23;20009;-94
2021/05/04 12:05:47;;;;;;;1.08;0.77;;;15.60;60.30;;;;;;6130541;23;20009;-90
2021/05/04 12:08:19;;;;;;;3.08;0.77;;;15.60;61.00;;;;;;6127260;23;20342;-93
2021/05/04 12:10:54;;;;;;;1.27;0.75;;;15.70;59.60;;;;;;6130905;23;20012;-93
2021/05/04 12:13:36;;;;;;;5.43;1.45;;;15.80;59.60;;;;;;6130799;23;20069;-93
2021/05/04 12:16:10;;;;;;;1.20;0.65;;;15.90;59.70;;;;;;6130451;23;20049;-92
2021/05/04 12:18:53;;;;;;;2.80;0.55;;;16.00;59.00;;;;;;6127079;23;20021;-93
2021/05/04 12:21:33;;;;;;;1.00;0.50;;;16.00;59.00;;;;;;6131062;23;20005;-96
2021/05/04 12:24:24;;;;;;;1.65;0.50;;;16.10;58.80;;;;;;6130338;23;20306;-93
2021/05/04 12:26:52;;;;;;;1.02;0.88;;;16.20;57.20;;;;;;6128299;23;20068;-94
2021/05/04 12:29:33;;;;;;;0.70;0.47;;;16.30;57.20;;;;;;6130474;23;20002;-94
2021/05/04 12:32:11;;;;;;;1.38;0.85;;;16.40;56.90;;;;;;6131101;23;20045;-94
2021/05/04 12:35:13;;;;;;;1.35;0.63;;;16.40;57.10;;;;;;6130013;23;20342;-94
2021/05/04 12:37:45;;;;;;;2.97;0.70;;;16.50;57.70;;;;;;6125736;23;20010;-94
2021/05/04 12:40:29;;;;;;;0.88;0.55;;;16.50;57.40;;;;;;6131084;23;20323;-93
2021/05/04 12:43:51;;;;;;;;;;;;;;;;;;;;;
2021/05/04 12:46:32;;;;;;;2.83;0.60;;;16.50;57.40;;;;;;6133741;23;20036;-92
2021/05/04 12:49:03;;;;;;;2.50;0.65;;;16.40;56.70;;;;;;6132669;23;20242;-91
2021/05/04 12:51:33;;;;;;;1.30;0.73;;;16.30;56.10;;;;;;6132636;23;20052;-93
2021/05/04 12:54:34;;;;;;;4.20;0.70;;;16.20;56.40;;;;;;6132622;23;20349;-93
2021/05/04 12:57:02;;;;;;;2.17;0.60;;;16.20;56.60;;;;;;6132851;23;20008;-92
2021/05/04 12:59:40;;;;;;;0.95;0.60;;;16.10;56.90;;;;;;6131495;23;20411;-91
2021/05/04 13:02:19;;;;;;;0.50;0.47;;;16.00;56.90;;;;;;6133381;23;20028;-93
2021/05/04 13:05:36;;;;;;;1.10;0.55;;;16.00;57.60;;;;;;6138974;23;20033;-93
2021/05/04 13:08:23;;;;;;;1.60;0.70;;;16.00;56.20;;;;;;6133084;23;20084;-93
2021/05/04 13:11:16;;;;;;;6.63;0.98;;;15.90;56.80;;;;;;6132651;23;20009;-92
2021/05/04 13:17:24;;;;;;;1.98;0.50;;;15.80;57.80;;;;;;6134415;23;20013;-94
2021/05/04 13:33:35;;;;;;;5.53;0.73;;;15.40;59.00;;;;;;6123795;23;20029;-89
2021/05/04 13:36:14;;;;;;;;;;;;;;;;;;;;;
2021/05/04 13:38:51;;;;;;;0.88;0.50;;;15.50;58.50;;;;;;6134118;23;20025;-92
2021/05/04 13:52:10;;;;;;;3.53;0.45;;;15.50;59.40;;;;;;5960824;24;20007;-94
2021/05/04 13:54:44;;;;;;;3.13;0.45;;;15.40;59.80;;;;;;5964955;24;20337;-95
2021/05/04 14:26:59;;;;;;;3.67;0.70;;;15.70;59.00;;;;;;6133933;23;20080;-93
2021/05/04 14:29:28;;;;;;;1.38;0.45;;;15.70;59.20;;;;;;6133001;23;20072;-94
2021/05/04 14:32:02;;;;;;;0.55;0.40;;;15.80;59.50;;;;;;6132916;23;20006;-95
2021/05/04 14:34:42;;;;;;;0.60;0.50;;;15.80;58.70;;;;;;6133259;23;20002;-93
2021/05/04 14:59:48;;;;;;;0.45;0.40;;;15.70;60.40;;;;;;6133488;23;20075;-93
2021/05/04 15:05:27;;;;;;;0.52;0.35;;;15.60;60.80;;;;;;6084194;23;20063;-92
2021/05/04 15:08:05;;;;;;;0.68;0.40;;;15.60;61.10;;;;;;6132588;23;20076;-92
2021/05/04 15:10:45;;;;;;;0.60;0.30;;;15.40;61.10;;;;;;6132613;23;20006;-91
2021/05/04 15:13:36;;;;;;;0.50;0.40;;;15.20;61.60;;;;;;6133604;23;20029;-90
2021/05/04 15:24:21;;;;;;;1.15;0.70;;;14.80;62.80;;;;;;6143093;23;20388;-93
2021/05/04 15:26:47;;;;;;;0.98;0.82;;;14.90;62.40;;;;;;6132484;23;20009;-94
2021/05/04 15:29:12;;;;;;;1.02;0.60;;;14.90;62.30;;;;;;6131651;23;20417;-93
2021/05/04 15:32:10;;;;;;;1.90;0.40;;;14.90;62.10;;;;;;6131985;23;20037;-94
2021/05/04 15:34:47;;;;;;;0.60;0.50;;;14.90;61.70;;;;;;6129010;23;20037;-94
2021/05/04 15:37:43;;;;;;;;;;;;;;;;;;;;;
2021/05/04 15:40:10;;;;;;;1.35;0.50;;;15.00;63.50;;;;;;6133000;23;20026;-93
2021/05/04 15:42:41;;;;;;;2.25;0.50;;;15.10;63.10;;;;;;6131064;23;20016;-94
2021/05/04 15:54:14;;;;;;;0.65;0.30;;;15.20;61.60;;;;;;6133199;23;20010;-95
2021/05/04 16:11:17;;;;;;;1.48;0.50;;;14.90;61.60;;;;;;6132910;23;20031;-92
2021/05/04 16:14:21;;;;;;;1.85;0.77;;;14.90;61.60;;;;;;6131911;23;20578;-92
2021/05/04 16:17:26;;;;;;;4.95;0.70;;;14.90;61.90;;;;;;6128877;23;20337;-93
2021/05/04 16:23:21;;;;;;;2.83;0.95;;;14.90;62.20;;;;;;6132540;23;20016;-93
2021/05/04 16:26:00;;;;;;;0.85;0.52;;;15.00;62.50;;;;;;6129965;23;20017;-93
2021/05/04 16:28:37;;;;;;;2.10;0.50;;;15.00;61.30;;;;;;6129509;23;20014;-93
2021/05/04 16:31:13;;;;;;;0.45;0.40;;;14.90;61.90;;;;;;6131625;23;20002;-94
2021/05/04 16:34:31;;;;;;;;;;;;;;;;;;;;;
2021/05/04 16:37:15;;;;;;;1.45;0.55;;;14.90;61.50;;;;;;6132306;23;20290;-92
2021/05/04 16:40:12;;;;;;;5.25;0.90;;;14.90;61.50;;;;;;6099957;23;20006;-92
2021/05/04 16:43:15;;;;;;;2.00;0.73;;;15.00;62.00;;;;;;6101533;23;20009;-93
2021/05/04 16:45:59;;;;;;;1.48;0.80;;;14.90;62.60;;;;;;6126618;23;20017;-92
2021/05/04 16:49:07;;;;;;;1.65;0.50;;;14.90;62.40;;;;;;6131669;23;20037;-92
2021/05/04 16:52:08;;;;;;;1.48;0.82;;;14.90;62.80;;;;;;6124582;23;20025;-91
2021/05/04 16:54:34;;;;;;;1.42;0.57;;;14.80;64.60;;;;;;6107531;23;20002;-91
2021/05/04 17:01:16;;;;;;;3.50;0.55;;;13.80;78.20;;;;;;6072131;23;20085;-93
2021/05/04 17:04:30;;;;;;;;;;;;;;;;;;;;;
2021/05/04 17:07:44;;;;;;;1.73;0.40;;;12.60;85.10;;;;;;6080614;23;20031;-93
2021/05/04 17:13:19;;;;;;;2.05;0.75;;;11.80;87.20;;;;;;6071551;23;20030;-93
2021/05/04 17:19:54;;;;;;;2.33;0.55;;;11.40;90.30;;;;;;6131923;23;20089;-94
2021/05/04 17:22:53;;;;;;;3.75;2.70;;;11.30;90.10;;;;;;6126040;23;20009;-93
2021/05/04 17:29:08;;;;;;;3.20;0.95;;;11.00;90.50;;;;;;6067634;23;20015;-91
2021/05/04 17:31:34;;;;;;;2.25;0.60;;;11.10;90.70;;;;;;6065296;23;20011;-93
2021/05/04 17:34:03;;;;;;;1.63;0.40;;;11.10;90.40;;;;;;6132200;23;20077;-94
2021/05/04 17:36:28;;;;;;;2.08;0.70;;;11.10;90.20;;;;;;6132641;23;20006;-92
2021/05/04 17:38:58;;;;;;;1.58;0.57;;;11.10;90.30;;;;;;6132255;23;20013;-93
2021/05/04 17:41:27;;;;;;;3.55;0.70;;;11.10;90.70;;;;;;6131242;23;20073;-90
2021/05/04 17:44:13;;;;;;;1.30;0.70;;;11.20;90.50;;;;;;6131375;23;20099;-93
2021/05/04 17:46:42;;;;;;;2.42;0.80;;;11.20;90.40;;;;;;6131143;23;20075;-91
2021/05/04 17:49:11;;;;;;;1.45;0.63;;;11.20;90.30;;;;;;6132670;23;20290;-93
2021/05/04 17:51:42;;;;;;;1.63;0.60;;;11.20;90.30;;;;;;6133029;23;20009;-91
2021/05/04 17:54:10;;;;;;;2.85;0.60;;;11.20;90.00;;;;;;6133343;23;20002;-94
2021/05/04 17:56:38;;;;;;;4.07;1.42;;;11.30;90.10;;;;;;6132592;23;20006;-91
2021/05/04 17:59:24;;;;;;;1.10;0.63;;;11.30;90.60;;;;;;6132297;23;20010;-93
2021/05/04 18:19:24;;;;;;;1.40;0.57;;;11.00;90.40;;;;;;6101316;23;20009;-93
2021/05/04 18:21:16;;;;;;;2.78;0.68;;;10.80;91.20;;;;;;6101240;23;20041;-95
2021/05/04 18:23:44;;;;;;;3.70;1.02;;;10.60;91.10;;;;;;6097182;23;20009;-94
2021/05/04 18:33:44;;;;;;;;;;;;;;;;;;;;;
2021/05/04 18:39:08;;;;;;;1.65;0.60;;;9.90;92.40;;;;;;6048830;23;20066;-94
2021/05/04 18:56:58;;;;;;;4.78;0.70;;;9.70;93.10;;;;;;6015829;23;20015;-94
2021/05/04 19:09:23;;;;;;;3.78;1.00;;;9.80;92.80;;;;;;6108519;23;20049;-96
2021/05/04 19:23:24;;;;;;;1.33;0.90;;;10.20;92.40;;;;;;6132681;23;20145;-93
2021/05/04 19:31:26;;;;;;;1.35;0.70;;;10.30;93.70;;;;;;6133695;23;20034;-93
2021/05/04 19:34:33;;;;;;;2.95;0.85;;;10.40;93.40;;;;;;6132245;23;20014;-92
2021/05/04 20:06:48;;;;;;;1.25;0.77;;;10.70;92.50;;;;;;6132566;23;20016;-92
2021/05/04 20:12:02;;;;;;;1.88;0.73;;;10.60;92.60;;;;;;6142568;23;20305;-94
2021/05/04 20:14:28;;;;;;;1.17;0.80;;;10.70;92.60;;;;;;6131454;23;20356;-94
2021/05/04 20:16:56;;;;;;;1.00;0.60;;;10.60;92.50;;;;;;6131893;23;20029;-94
2021/05/04 20:19:25;;;;;;;4.07;1.15;;;10.70;92.50;;;;;;6131091;23;20005;-93